createdAt,value
2019-01-15T00:00:52.936Z,70.65
2019-01-15T00:01:52.956Z,70.65
2019-01-15T00:02:52.937Z,70.86
2019-01-15T00:03:52.900Z,70.23
2019-01-15T00:04:52.893Z,69.09
2019-01-15T00:05:52.916Z,69.48
2019-01-15T00:06:52.887Z,69.79
2019-01-15T00:07:52.864Z,70.20
2019-01-15T00:08:52.846Z,70.41
2019-01-15T00:09:52.842Z,69.68
2019-01-15T00:10:52.831Z,69.82
2019-01-15T00:11:52.842Z,69.37
2019-01-15T00:12:52.860Z,69.06
2019-01-15T00:13:52.804Z,69.58
2019-01-15T00:14:52.790Z,69.82
2019-01-15T00:15:52.818Z,70.62
2019-01-15T00:16:52.766Z,70.51
2019-01-15T00:17:52.771Z,69.68
2019-01-15T00:18:52.745Z,70.41
2019-01-15T00:19:52.733Z,70.62
2019-01-15T00:20:52.742Z,70.51
2019-01-15T00:21:52.713Z,70.20
2019-01-15T00:22:52.773Z,69.89
2019-01-15T00:23:52.692Z,69.55
2019-01-15T00:24:52.694Z,70.59
2019-01-15T00:25:52.667Z,69.48
2019-01-15T00:26:53.424Z,70.28
2019-01-15T00:27:52.647Z,69.13
2019-01-15T00:28:52.681Z,68.82
2019-01-15T00:29:52.634Z,69.34
2019-01-15T00:30:52.632Z,68.85
2019-01-15T00:31:52.610Z,69.48
2019-01-15T00:32:52.613Z,68.96
2019-01-15T00:33:53.439Z,70.51
2019-01-15T00:34:52.592Z,69.96
2019-01-15T00:35:52.562Z,70.20
2019-01-15T00:36:52.568Z,69.06
2019-01-15T00:37:53.416Z,69.89
2019-01-15T00:38:52.579Z,70.31
2019-01-15T00:39:52.526Z,70.72
2019-01-15T00:40:52.528Z,70.20
2019-01-15T00:41:52.505Z,70.62
2019-01-15T00:42:52.504Z,70.31
2019-01-15T00:43:52.479Z,70.62
2019-01-15T00:44:52.474Z,69.27
2019-01-15T00:45:52.467Z,70.48
2019-01-15T00:46:52.469Z,70.20
2019-01-15T00:47:52.448Z,70.59
2019-01-15T00:48:52.440Z,68.96
2019-01-15T00:49:52.424Z,70.20
2019-01-15T00:50:52.936Z,69.06
2019-01-15T00:51:52.432Z,70.83
2019-01-15T00:52:52.380Z,69.68
2019-01-15T00:53:52.405Z,69.45
2019-01-15T00:54:52.372Z,70.31
2019-01-15T00:55:52.393Z,70.20
2019-01-15T00:56:52.356Z,69.45
2019-01-15T00:57:52.355Z,70.72
2019-01-15T00:58:52.333Z,70.62
2019-01-15T00:59:54.950Z,70.41
2019-01-15T01:00:52.332Z,70.10
2019-01-15T01:01:52.299Z,70.59
2019-01-15T01:02:52.294Z,69.27
2019-01-15T01:03:52.305Z,68.93
2019-01-15T01:04:52.267Z,69.48
2019-01-15T01:05:52.261Z,69.68
2019-01-15T01:06:52.266Z,69.17
2019-01-15T01:07:52.290Z,70.20
2019-01-15T01:09:01.974Z,70.10
2019-01-15T01:09:59.461Z,70.69
2019-01-15T01:11:00.958Z,70.59
2019-01-15T01:11:52.188Z,70.17
2019-01-15T01:12:52.170Z,70.59
2019-01-15T01:14:00.415Z,69.45
2019-01-15T01:14:52.169Z,70.28
2019-01-15T01:15:52.156Z,68.93
2019-01-15T01:16:52.138Z,68.72
2019-01-15T01:17:53.077Z,69.86
2019-01-15T01:18:52.111Z,69.76
2019-01-15T01:19:52.099Z,70.69
2019-01-15T01:20:53.595Z,69.03
2019-01-15T01:21:52.097Z,69.76
2019-01-15T01:22:52.074Z,69.34
2019-01-15T01:23:52.053Z,69.55
2019-01-15T01:24:52.050Z,69.48
2019-01-15T01:25:52.073Z,70.28
2019-01-15T01:26:52.054Z,70.10
2019-01-15T01:27:52.014Z,70.62
2019-01-15T01:28:52.006Z,70.31
2019-01-15T01:29:51.997Z,70.31
2019-01-15T01:30:51.977Z,70.20
2019-01-15T01:31:52.010Z,70.41
2019-01-15T01:32:51.971Z,69.65
2019-01-15T01:33:51.943Z,68.93
2019-01-15T01:34:51.951Z,69.13
2019-01-15T01:35:51.924Z,69.17
2019-01-15T01:36:51.919Z,69.96
2019-01-15T01:37:51.950Z,69.76
2019-01-15T01:38:51.913Z,69.86
2019-01-15T01:39:51.895Z,69.34
2019-01-15T01:40:51.871Z,69.45
2019-01-15T01:41:51.905Z,69.03
2019-01-15T01:42:53.129Z,69.45
2019-01-15T01:43:51.841Z,68.82
2019-01-15T01:44:51.855Z,69.45
2019-01-15T01:45:53.598Z,69.13
2019-01-15T01:46:51.817Z,69.58
2019-01-15T01:47:51.798Z,69.17
2019-01-15T01:48:51.785Z,69.65
2019-01-15T01:49:52.574Z,69.03
2019-01-15T01:50:51.784Z,69.55
2019-01-15T01:51:51.773Z,69.45
2019-01-15T01:52:51.789Z,68.93
2019-01-15T01:53:51.739Z,69.58
2019-01-15T01:54:51.723Z,69.68
2019-01-15T01:55:51.742Z,69.37
2019-01-15T01:56:52.606Z,69.79
2019-01-15T01:57:51.697Z,69.96
2019-01-15T01:58:51.687Z,69.45
2019-01-15T01:59:51.693Z,68.93
2019-01-15T02:00:51.662Z,69.48
2019-01-15T02:01:51.674Z,69.06
2019-01-15T02:02:51.640Z,70.41
2019-01-15T02:03:51.637Z,69.89
2019-01-15T02:04:51.617Z,70.31
2019-01-15T02:05:51.607Z,69.06
2019-01-15T02:06:51.620Z,69.27
2019-01-15T02:07:51.589Z,70.28
2019-01-15T02:08:51.601Z,70.17
2019-01-15T02:09:59.470Z,69.58
2019-01-15T02:10:51.563Z,70.48
2019-01-15T02:11:51.561Z,70.07
2019-01-15T02:12:51.539Z,69.45
2019-01-15T02:13:51.526Z,69.76
2019-01-15T02:14:51.512Z,69.03
2019-01-15T02:15:51.503Z,69.03
2019-01-15T02:16:58.852Z,69.45
2019-01-15T02:17:59.365Z,69.45
2019-01-15T02:18:58.839Z,69.24
2019-01-15T02:19:51.465Z,69.96
2019-01-15T02:20:51.451Z,69.55
2019-01-15T02:21:51.443Z,68.90
2019-01-15T02:22:51.458Z,69.03
2019-01-15T02:23:51.439Z,74.11
2019-01-15T02:24:51.411Z,73.05
2019-01-15T02:25:51.400Z,74.57
2019-01-15T02:26:51.602Z,73.84
2019-01-15T02:27:51.402Z,70.42
2019-01-15T02:28:51.375Z,68.62
2019-01-15T02:29:51.363Z,68.21
2019-01-15T02:30:51.361Z,68.83
2019-01-15T02:31:51.347Z,68.10
2019-01-15T02:32:51.331Z,68.21
2019-01-15T02:33:51.349Z,67.90
2019-01-15T02:34:51.310Z,70.49
2019-01-15T02:35:51.307Z,70.15
2019-01-15T02:36:51.298Z,69.21
2019-01-15T02:37:51.278Z,70.42
2019-01-15T02:38:51.266Z,69.39
2019-01-15T02:39:51.287Z,69.46
2019-01-15T02:40:51.243Z,66.38
2019-01-15T02:41:51.237Z,67.11
2019-01-15T02:42:51.228Z,66.49
2019-01-15T02:43:51.221Z,65.87
2019-01-15T02:44:51.212Z,66.80
2019-01-15T02:45:51.203Z,66.28
2019-01-15T02:46:51.214Z,66.41
2019-01-15T02:47:52.779Z,67.35
2019-01-15T02:48:51.172Z,67.07
2019-01-15T02:49:51.155Z,68.10
2019-01-15T02:50:51.162Z,66.55
2019-01-15T02:51:51.135Z,67.51
2019-01-15T02:52:51.118Z,68.55
2019-01-15T02:53:51.114Z,68.13
2019-01-15T02:54:51.089Z,68.65
2019-01-15T02:55:51.087Z,68.65
2019-01-15T02:56:51.108Z,68.65
2019-01-15T02:57:51.081Z,68.55
2019-01-15T02:58:51.058Z,69.07
2019-01-15T02:59:51.036Z,69.38
2019-01-15T03:00:51.067Z,69.10
2019-01-15T03:01:51.020Z,68.76
2019-01-15T03:02:51.027Z,70.25
2019-01-15T03:03:51.021Z,68.76
2019-01-15T03:04:50.989Z,69.38
2019-01-15T03:05:50.997Z,69.73
2019-01-15T03:06:50.972Z,69.62
2019-01-15T03:07:50.969Z,69.10
2019-01-15T03:08:50.992Z,69.42
2019-01-15T03:09:51.935Z,70.17
2019-01-15T03:10:50.960Z,70.76
2019-01-15T03:11:50.917Z,69.93
2019-01-15T03:12:55.905Z,69.96
2019-01-15T03:13:51.909Z,69.03
2019-01-15T03:14:50.894Z,69.76
2019-01-15T03:15:50.907Z,69.96
2019-01-15T03:16:50.865Z,70.69
2019-01-15T03:17:50.851Z,70.59
2019-01-15T03:18:50.857Z,69.86
2019-01-15T03:19:50.847Z,70.48
2019-01-15T03:20:50.813Z,70.48
2019-01-15T03:21:50.807Z,71.42
2019-01-15T03:22:50.797Z,70.79
2019-01-15T03:23:50.816Z,70.48
2019-01-15T03:24:50.781Z,71.00
2019-01-15T03:25:50.788Z,71.66
2019-01-15T03:26:50.760Z,71.66
2019-01-15T03:27:50.742Z,70.00
2019-01-15T03:28:50.732Z,71.14
2019-01-15T03:29:50.744Z,72.38
2019-01-15T03:30:50.717Z,72.17
2019-01-15T03:31:50.707Z,71.66
2019-01-15T03:32:50.712Z,71.76
2019-01-15T03:33:50.681Z,72.28
2019-01-15T03:34:50.674Z,71.14
2019-01-15T03:35:50.684Z,71.69
2019-01-15T03:36:50.668Z,71.86
2019-01-15T03:37:50.644Z,72.21
2019-01-15T03:38:50.632Z,71.97
2019-01-15T03:39:50.615Z,73.00
2019-01-15T03:40:50.616Z,71.45
2019-01-15T03:41:50.612Z,72.07
2019-01-15T03:42:50.594Z,72.28
2019-01-15T03:43:50.585Z,71.86
2019-01-15T03:44:50.568Z,72.07
2019-01-15T03:45:50.558Z,72.28
2019-01-15T03:46:51.251Z,73.00
2019-01-15T03:47:50.548Z,72.28
2019-01-15T03:48:50.541Z,72.49
2019-01-15T03:49:50.517Z,72.28
2019-01-15T03:50:50.523Z,72.49
2019-01-15T03:51:50.495Z,72.28
2019-01-15T03:52:50.483Z,72.28
2019-01-15T03:53:50.469Z,71.34
2019-01-15T03:54:50.471Z,72.17
2019-01-15T03:55:50.455Z,72.28
2019-01-15T03:56:50.437Z,71.73
2019-01-15T03:57:50.448Z,71.62
2019-01-15T03:58:50.422Z,72.04
2019-01-15T03:59:50.405Z,72.14
2019-01-15T04:00:50.409Z,71.21
2019-01-15T04:01:50.385Z,71.94
2019-01-15T04:02:50.393Z,71.83
2019-01-15T04:03:50.398Z,71.52
2019-01-15T04:04:50.354Z,71.21
2019-01-15T04:05:50.338Z,72.14
2019-01-15T04:06:50.355Z,72.56
2019-01-15T04:07:50.336Z,71.73
2019-01-15T04:08:50.312Z,71.62
2019-01-15T04:09:50.299Z,71.18
2019-01-15T04:10:50.293Z,71.94
2019-01-15T04:11:50.302Z,71.94
2019-01-15T04:12:50.286Z,72.22
2019-01-15T04:13:50.262Z,71.18
2019-01-15T04:14:50.253Z,71.80
2019-01-15T04:15:50.240Z,71.70
2019-01-15T04:16:50.225Z,71.21
2019-01-15T04:17:50.234Z,72.32
2019-01-15T04:18:50.479Z,71.94
2019-01-15T04:19:50.199Z,72.01
2019-01-15T04:20:50.197Z,72.11
2019-01-15T04:21:50.170Z,71.91
2019-01-15T04:22:50.174Z,71.83
2019-01-15T04:23:50.180Z,72.11
2019-01-15T04:24:50.139Z,72.01
2019-01-15T04:25:50.132Z,72.42
2019-01-15T04:26:50.121Z,72.14
2019-01-15T04:27:50.117Z,72.63
2019-01-15T04:28:50.096Z,72.11
2019-01-15T04:29:50.118Z,72.53
2019-01-15T04:30:50.073Z,72.11
2019-01-15T04:31:50.070Z,72.94
2019-01-15T04:32:50.053Z,72.77
2019-01-15T04:33:50.070Z,72.94
2019-01-15T04:34:50.031Z,72.01
2019-01-15T04:35:50.024Z,72.42
2019-01-15T04:36:50.021Z,72.32
2019-01-15T04:37:50.013Z,72.32
2019-01-15T04:38:49.997Z,73.05
2019-01-15T04:39:50.155Z,73.32
2019-01-15T04:40:49.971Z,72.39
2019-01-15T04:41:49.964Z,72.39
2019-01-15T04:42:49.953Z,72.70
2019-01-15T04:43:49.938Z,72.84
2019-01-15T04:44:49.953Z,73.15
2019-01-15T04:45:49.924Z,73.43
